createdAt,value
2022-10-01T00:00:38.243Z,982.58
2022-10-01T00:01:38.500Z,982.58
2022-10-01T00:02:38.236Z,982.58
2022-10-01T00:03:38.228Z,982.56
2022-10-01T00:04:38.182Z,982.54
2022-10-01T00:05:38.775Z,982.52
2022-10-01T00:06:38.157Z,982.51
2022-10-01T00:07:38.155Z,982.51
2022-10-01T00:08:38.146Z,982.49
2022-10-01T00:09:38.160Z,982.47
2022-10-01T00:10:38.167Z,982.45
2022-10-01T00:11:38.142Z,982.42
2022-10-01T00:12:38.114Z,982.40
2022-10-01T00:13:38.109Z,982.39
2022-10-01T00:14:38.103Z,982.37
2022-10-01T00:15:38.097Z,982.36
2022-10-01T00:16:38.217Z,982.35
2022-10-01T00:17:38.107Z,982.35
2022-10-01T00:18:38.075Z,982.35
2022-10-01T00:19:38.069Z,982.34
2022-10-01T00:20:38.046Z,982.34
2022-10-01T00:21:38.040Z,982.34
2022-10-01T00:22:38.045Z,982.34
2022-10-01T00:23:38.048Z,982.33
2022-10-01T00:24:38.035Z,982.31
2022-10-01T00:25:38.009Z,982.28
2022-10-01T00:26:38.004Z,982.28
2022-10-01T00:27:38.000Z,982.26
2022-10-01T00:28:38.004Z,982.24
2022-10-01T00:29:38.005Z,982.24
2022-10-01T00:30:40.399Z,982.22
2022-10-01T00:31:38.548Z,982.24
2022-10-01T00:32:37.959Z,982.21
2022-10-01T00:33:37.965Z,982.22
2022-10-01T00:34:37.943Z,982.20
2022-10-01T00:35:37.937Z,982.18
2022-10-01T00:36:37.921Z,982.15
2022-10-01T00:37:37.928Z,982.13
2022-10-01T00:38:37.952Z,982.11
2022-10-01T00:39:37.895Z,982.09
2022-10-01T00:40:37.893Z,982.06
2022-10-01T00:41:38.102Z,982.06
2022-10-01T00:42:37.872Z,982.03
2022-10-01T00:43:37.882Z,982.01
2022-10-01T00:44:37.882Z,981.99
2022-10-01T00:45:37.868Z,981.96
2022-10-01T00:46:37.841Z,981.94
2022-10-01T00:47:37.863Z,981.94
2022-10-01T00:48:37.831Z,981.94
2022-10-01T00:49:37.828Z,981.92
2022-10-01T00:50:37.841Z,981.91
2022-10-01T00:51:37.826Z,981.89
2022-10-01T00:52:37.791Z,981.86
2022-10-01T00:53:37.789Z,981.85
2022-10-01T00:54:37.784Z,981.85
2022-10-01T00:55:37.796Z,981.83
2022-10-01T00:56:37.765Z,981.81
2022-10-01T00:57:37.749Z,981.79
2022-10-01T00:58:37.750Z,981.78
2022-10-01T00:59:37.744Z,981.75
2022-10-01T01:00:37.725Z,981.73
2022-10-01T01:01:38.074Z,981.71
2022-10-01T01:02:37.818Z,981.69
2022-10-01T01:03:37.703Z,981.69
2022-10-01T01:04:37.691Z,981.68
2022-10-01T01:05:37.684Z,981.64
2022-10-01T01:06:37.673Z,981.64
2022-10-01T01:07:37.693Z,981.64
2022-10-01T01:08:37.659Z,981.61
2022-10-01T01:09:37.652Z,981.63
2022-10-01T01:10:37.654Z,981.64
2022-10-01T01:11:37.647Z,981.62
2022-10-01T01:12:37.641Z,981.61
2022-10-01T01:13:37.649Z,981.60
2022-10-01T01:14:37.617Z,981.61
2022-10-01T01:15:37.669Z,981.61
2022-10-01T01:16:37.595Z,981.62
2022-10-01T01:17:37.644Z,981.60
2022-10-01T01:18:37.599Z,981.61
2022-10-01T01:19:37.568Z,981.60
2022-10-01T01:20:37.579Z,981.60
2022-10-01T01:21:37.550Z,981.61
2022-10-01T01:22:37.548Z,981.61
2022-10-01T01:23:37.538Z,981.59
2022-10-01T01:24:37.822Z,981.57
2022-10-01T01:25:37.530Z,981.56
2022-10-01T01:26:37.515Z,981.53
2022-10-01T01:27:37.531Z,981.54
2022-10-01T01:28:37.520Z,981.51
2022-10-01T01:29:37.496Z,981.51
2022-10-01T01:30:37.486Z,981.47
2022-10-01T01:31:37.893Z,981.47
2022-10-01T01:32:37.468Z,981.47
2022-10-01T01:33:37.469Z,981.46
2022-10-01T01:34:37.474Z,981.46
2022-10-01T01:35:37.439Z,981.45
2022-10-01T01:36:37.432Z,981.42
2022-10-01T01:37:37.426Z,981.41
2022-10-01T01:38:37.419Z,981.40
2022-10-01T01:39:37.410Z,981.39
2022-10-01T01:40:37.431Z,981.38
2022-10-01T01:41:37.390Z,981.35
2022-10-01T01:42:37.386Z,981.37
2022-10-01T01:43:37.378Z,981.34
2022-10-01T01:44:37.393Z,981.34
2022-10-01T01:45:37.423Z,981.33
2022-10-01T01:46:37.359Z,981.34
2022-10-01T01:47:37.355Z,981.33
2022-10-01T01:48:37.344Z,981.32
2022-10-01T01:49:37.332Z,981.33
2022-10-01T01:50:37.328Z,981.29
2022-10-01T01:51:37.310Z,981.27
2022-10-01T01:52:37.292Z,981.25
2022-10-01T01:53:37.308Z,981.24
2022-10-01T01:54:37.282Z,981.22
2022-10-01T01:55:37.303Z,981.19
2022-10-01T01:56:37.278Z,981.19
2022-10-01T01:57:37.265Z,981.18
2022-10-01T01:58:37.254Z,981.16
2022-10-01T01:59:37.246Z,981.16
2022-10-01T02:00:37.257Z,981.14
2022-10-01T02:01:37.701Z,981.13
2022-10-01T02:02:37.239Z,981.11
2022-10-01T02:03:37.204Z,981.13
2022-10-01T02:04:37.206Z,981.13
2022-10-01T02:05:37.213Z,981.16
2022-10-01T02:06:37.198Z,981.15
2022-10-01T02:07:37.198Z,981.15
2022-10-01T02:08:37.164Z,981.11
2022-10-01T02:09:37.163Z,981.12
2022-10-01T02:10:37.157Z,981.11
2022-10-01T02:11:37.148Z,981.10
2022-10-01T02:12:37.136Z,981.08
2022-10-01T02:13:37.147Z,981.08
2022-10-01T02:14:37.114Z,981.06
2022-10-01T02:15:37.145Z,981.06
2022-10-01T02:16:37.097Z,981.04
2022-10-01T02:17:37.094Z,981.04
2022-10-01T02:18:37.094Z,981.03
2022-10-01T02:19:37.101Z,981.02
2022-10-01T02:20:37.083Z,980.99
2022-10-01T02:21:37.127Z,980.98
2022-10-01T02:22:37.062Z,980.99
2022-10-01T02:23:37.064Z,980.98
2022-10-01T02:24:37.039Z,980.99
2022-10-01T02:25:37.328Z,981.00
2022-10-01T02:26:37.018Z,981.00
2022-10-01T02:27:37.061Z,981.01
2022-10-01T02:28:37.001Z,980.99
2022-10-01T02:29:36.986Z,980.99
2022-10-01T02:30:36.991Z,980.98
2022-10-01T02:31:37.476Z,980.98
2022-10-01T02:32:37.019Z,980.96
2022-10-01T02:33:36.950Z,980.93
2022-10-01T02:34:36.934Z,980.93
2022-10-01T02:35:36.970Z,980.91
2022-10-01T02:36:36.923Z,980.88
2022-10-01T02:37:36.932Z,980.85
2022-10-01T02:38:36.925Z,980.86
2022-10-01T02:39:36.910Z,980.87
2022-10-01T02:40:36.897Z,980.85
2022-10-01T02:41:37.148Z,980.85
2022-10-01T02:42:36.895Z,980.84
2022-10-01T02:43:40.681Z,980.83
2022-10-01T02:44:37.922Z,980.81
2022-10-01T02:45:36.927Z,980.81
2022-10-01T02:46:36.857Z,980.80
2022-10-01T02:47:36.884Z,980.78
2022-10-01T02:48:36.828Z,980.78
2022-10-01T02:49:36.822Z,980.78
2022-10-01T02:50:36.813Z,980.77
2022-10-01T02:51:37.003Z,980.77
2022-10-01T02:52:36.834Z,980.75
2022-10-01T02:53:36.801Z,980.77
2022-10-01T02:54:36.792Z,980.74
2022-10-01T02:55:36.812Z,980.73
2022-10-01T02:56:36.769Z,980.71
2022-10-01T02:57:36.790Z,980.67
2022-10-01T02:58:36.774Z,980.64
2022-10-01T02:59:36.738Z,980.63
2022-10-01T03:00:36.763Z,980.62
2022-10-01T03:01:37.182Z,980.57
2022-10-01T03:02:36.818Z,980.55
2022-10-01T03:03:36.746Z,980.52
2022-10-01T03:04:36.701Z,980.47
2022-10-01T03:05:36.685Z,980.44
2022-10-01T03:06:36.690Z,980.42
2022-10-01T03:07:36.672Z,980.39
2022-10-01T03:08:36.681Z,980.37
2022-10-01T03:09:36.648Z,980.36
2022-10-01T03:10:36.666Z,980.32
2022-10-01T03:11:36.782Z,980.31
2022-10-01T03:12:36.636Z,980.29
2022-10-01T03:13:36.631Z,980.28
2022-10-01T03:14:36.620Z,980.25
2022-10-01T03:15:36.644Z,980.25
2022-10-01T03:16:36.649Z,980.24
2022-10-01T03:17:36.582Z,980.25
2022-10-01T03:18:36.590Z,980.23
2022-10-01T03:19:36.571Z,980.25
2022-10-01T03:20:36.558Z,980.21
2022-10-01T03:21:36.820Z,980.23
2022-10-01T03:22:36.581Z,980.18
2022-10-01T03:23:36.537Z,980.16
2022-10-01T03:24:36.518Z,980.16
2022-10-01T03:25:36.511Z,980.13
2022-10-01T03:26:36.496Z,980.12
2022-10-01T03:27:36.497Z,980.08
2022-10-01T03:28:36.525Z,980.07
2022-10-01T03:29:36.481Z,980.03
2022-10-01T03:30:36.476Z,980.04
2022-10-01T03:31:37.029Z,980.03
2022-10-01T03:32:36.457Z,980.01
2022-10-01T03:33:36.450Z,980.00
2022-10-01T03:34:36.460Z,979.99
2022-10-01T03:35:36.426Z,979.97
2022-10-01T03:36:36.427Z,979.97
2022-10-01T03:37:36.430Z,980.00
2022-10-01T03:38:36.391Z,979.99
2022-10-01T03:39:36.391Z,979.96
2022-10-01T03:40:36.394Z,980.01
2022-10-01T03:41:36.556Z,979.91
2022-10-01T03:42:36.354Z,979.90
2022-10-01T03:43:36.356Z,979.91
2022-10-01T03:44:36.342Z,979.86
2022-10-01T03:45:36.417Z,979.84
2022-10-01T03:46:36.321Z,979.82
2022-10-01T03:47:36.304Z,979.79
2022-10-01T03:48:36.304Z,979.78
2022-10-01T03:49:36.322Z,979.74
2022-10-01T03:50:36.309Z,979.75
2022-10-01T03:51:36.618Z,979.70
2022-10-01T03:52:36.323Z,979.71
2022-10-01T03:53:36.280Z,979.69
2022-10-01T03:54:36.257Z,979.71
2022-10-01T03:55:36.247Z,979.74
2022-10-01T03:56:36.243Z,979.73
2022-10-01T03:57:36.226Z,979.70
2022-10-01T03:58:36.238Z,979.70
2022-10-01T03:59:36.209Z,979.70
2022-10-01T04:00:36.218Z,979.67
2022-10-01T04:01:36.756Z,979.71
2022-10-01T04:02:36.296Z,979.66
2022-10-01T04:03:36.175Z,979.64
2022-10-01T04:04:36.196Z,979.63
2022-10-01T04:05:36.160Z,979.61
2022-10-01T04:06:36.151Z,979.58
2022-10-01T04:07:36.135Z,979.60
2022-10-01T04:08:36.140Z,979.60
2022-10-01T04:09:36.125Z,979.60
2022-10-01T04:10:36.140Z,979.60
2022-10-01T04:11:36.594Z,979.61
2022-10-01T04:12:36.098Z,979.61
2022-10-01T04:13:36.090Z,979.62
2022-10-01T04:14:36.075Z,979.58
2022-10-01T04:15:36.174Z,979.62
2022-10-01T04:16:36.208Z,979.62
2022-10-01T04:17:36.083Z,979.61
2022-10-01T04:18:36.046Z,979.60
2022-10-01T04:19:36.212Z,979.59
2022-10-01T04:20:36.028Z,979.65
2022-10-01T04:21:36.417Z,979.58
2022-10-01T04:22:36.059Z,979.63
2022-10-01T04:23:36.006Z,979.61
2022-10-01T04:24:36.006Z,979.61
2022-10-01T04:25:36.016Z,979.59
2022-10-01T04:26:36.016Z,979.57
2022-10-01T04:27:35.981Z,979.60
2022-10-01T04:28:35.970Z,979.57
2022-10-01T04:29:40.088Z,979.59
2022-10-01T04:30:35.949Z,979.56
2022-10-01T04:31:36.435Z,979.58
2022-10-01T04:32:35.955Z,979.59
2022-10-01T04:33:35.922Z,979.58
2022-10-01T04:34:35.921Z,979.57
2022-10-01T04:35:35.901Z,979.56
2022-10-01T04:36:35.936Z,979.59
2022-10-01T04:37:35.892Z,979.61
2022-10-01T04:38:35.873Z,979.55
2022-10-01T04:39:35.869Z,979.57
2022-10-01T04:40:35.866Z,979.63
2022-10-01T04:41:36.113Z,979.58
2022-10-01T04:42:35.912Z,979.59
2022-10-01T04:43:35.834Z,979.58
2022-10-01T04:44:35.887Z,979.57
2022-10-01T04:45:35.819Z,979.59
2022-10-01T04:46:35.862Z,979.62
2022-10-01T04:47:37.712Z,979.59
2022-10-01T04:48:35.795Z,979.60
2022-10-01T04:49:35.820Z,979.57
2022-10-01T04:50:35.810Z,979.57
2022-10-01T04:51:36.211Z,979.57
2022-10-01T04:52:35.768Z,979.58
2022-10-01T04:53:35.749Z,979.58
2022-10-01T04:54:35.741Z,979.57
2022-10-01T04:55:35.740Z,979.57
2022-10-01T04:56:35.751Z,979.61
2022-10-01T04:57:35.730Z,979.61
2022-10-01T04:58:35.729Z,979.58
2022-10-01T04:59:35.710Z,979.63
2022-10-01T05:00:35.735Z,979.61
2022-10-01T05:01:36.177Z,979.56
2022-10-01T05:02:35.752Z,979.60
2022-10-01T05:03:35.700Z,979.57
2022-10-01T05:04:35.671Z,979.59
2022-10-01T05:05:35.648Z,979.64
2022-10-01T05:06:35.641Z,979.63
2022-10-01T05:07:35.644Z,979.61
2022-10-01T05:08:35.626Z,979.64
2022-10-01T05:09:35.633Z,979.63
2022-10-01T05:10:35.632Z,979.61
2022-10-01T05:11:35.906Z,979.62
2022-10-01T05:12:35.598Z,979.61
2022-10-01T05:13:35.580Z,979.62
2022-10-01T05:14:35.623Z,979.61
2022-10-01T05:15:35.573Z,979.60
2022-10-01T05:16:35.621Z,979.57
2022-10-01T05:17:35.566Z,979.59
2022-10-01T05:18:35.546Z,979.58
2022-10-01T05:19:35.547Z,979.54
2022-10-01T05:20:35.555Z,979.55
2022-10-01T05:21:35.736Z,979.54
2022-10-01T05:22:35.510Z,979.48
2022-10-01T05:23:35.512Z,979.47
2022-10-01T05:24:35.495Z,979.49
2022-10-01T05:25:35.482Z,979.47
2022-10-01T05:26:35.616Z,979.47
2022-10-01T05:27:35.464Z,979.51
2022-10-01T05:28:35.518Z,979.51
2022-10-01T05:29:35.469Z,979.49
2022-10-01T05:30:35.464Z,979.50
2022-10-01T05:31:35.672Z,979.47
2022-10-01T05:32:35.435Z,979.48
2022-10-01T05:33:35.419Z,979.47
2022-10-01T05:34:35.465Z,979.47
2022-10-01T05:35:35.397Z,979.47
2022-10-01T05:36:35.416Z,979.46
2022-10-01T05:37:35.377Z,979.44
2022-10-01T05:38:35.381Z,979.46
2022-10-01T05:39:35.373Z,979.44
2022-10-01T05:40:35.363Z,979.41
2022-10-01T05:41:35.593Z,979.42
2022-10-01T05:42:35.366Z,979.40
2022-10-01T05:43:35.324Z,979.39
2022-10-01T05:44:35.323Z,979.37
2022-10-01T05:45:35.389Z,979.35
2022-10-01T05:46:35.312Z,979.31
2022-10-01T05:47:35.324Z,979.31
2022-10-01T05:48:35.302Z,979.31
2022-10-01T05:49:35.277Z,979.30
2022-10-01T05:50:35.272Z,979.31
2022-10-01T05:51:35.536Z,979.35
2022-10-01T05:52:35.286Z,979.36
2022-10-01T05:53:35.266Z,979.34
2022-10-01T05:54:35.243Z,979.31
2022-10-01T05:55:35.250Z,979.30
2022-10-01T05:56:35.254Z,979.27
2022-10-01T05:57:35.208Z,979.21
2022-10-01T05:58:35.264Z,979.14
2022-10-01T05:59:35.281Z,979.17
2022-10-01T06:00:35.185Z,979.15
2022-10-01T06:01:35.447Z,979.11
2022-10-01T06:02:35.320Z,979.10
2022-10-01T06:03:35.157Z,979.10
2022-10-01T06:04:40.286Z,979.05
2022-10-01T06:05:36.249Z,979.02
2022-10-01T06:06:35.140Z,979.00
2022-10-01T06:07:35.133Z,979.00
2022-10-01T06:08:35.112Z,978.94
2022-10-01T06:09:35.198Z,978.93
2022-10-01T06:10:35.104Z,978.89
2022-10-01T06:11:35.451Z,978.90
2022-10-01T06:12:35.086Z,978.91
2022-10-01T06:13:35.067Z,978.82
2022-10-01T06:14:35.086Z,978.77
2022-10-01T06:15:35.080Z,978.74
2022-10-01T06:16:35.082Z,978.70
2022-10-01T06:17:35.043Z,978.64
2022-10-01T06:18:35.059Z,978.65
2022-10-01T06:19:35.047Z,978.57
2022-10-01T06:20:35.037Z,978.55
2022-10-01T06:21:35.189Z,978.57
2022-10-01T06:22:34.993Z,978.55
2022-10-01T06:23:34.978Z,978.54
2022-10-01T06:24:34.974Z,978.58
2022-10-01T06:25:34.995Z,978.58
2022-10-01T06:26:34.957Z,978.56
2022-10-01T06:27:34.967Z,978.54
2022-10-01T06:28:34.981Z,978.49
2022-10-01T06:29:34.940Z,978.45
2022-10-01T06:30:34.939Z,978.45
2022-10-01T06:31:35.264Z,978.46
2022-10-01T06:32:35.246Z,978.45
2022-10-01T06:33:34.912Z,978.44
2022-10-01T06:34:34.893Z,978.41
2022-10-01T06:35:34.899Z,978.41
2022-10-01T06:36:34.879Z,978.37
2022-10-01T06:37:34.879Z,978.35
2022-10-01T06:38:34.859Z,978.33
2022-10-01T06:39:34.854Z,978.26
2022-10-01T06:40:34.862Z,978.32
2022-10-01T06:41:35.247Z,978.31
2022-10-01T06:42:34.846Z,978.32
2022-10-01T06:43:34.823Z,978.33
2022-10-01T06:44:34.956Z,978.30
2022-10-01T06:45:34.841Z,978.36
2022-10-01T06:46:34.787Z,978.34
2022-10-01T06:47:34.781Z,978.29
2022-10-01T06:48:34.801Z,978.34
2022-10-01T06:49:34.752Z,978.28
2022-10-01T06:50:34.749Z,978.32
2022-10-01T06:51:35.097Z,978.26
2022-10-01T06:52:34.738Z,978.23
2022-10-01T06:53:34.746Z,978.21
2022-10-01T06:54:35.363Z,978.20
2022-10-01T06:55:34.702Z,978.21
2022-10-01T06:56:34.697Z,978.14
2022-10-01T06:57:34.691Z,978.16
2022-10-01T06:58:34.744Z,978.21
2022-10-01T06:59:34.780Z,978.24
2022-10-01T07:00:34.665Z,978.21
2022-10-01T07:01:34.930Z,978.12
2022-10-01T07:02:34.670Z,978.14
2022-10-01T07:03:34.636Z,978.13
2022-10-01T07:04:34.648Z,978.11
2022-10-01T07:05:34.634Z,978.10
2022-10-01T07:06:34.602Z,978.18
2022-10-01T07:07:34.801Z,978.20
2022-10-01T07:08:34.589Z,978.22
2022-10-01T07:09:34.601Z,978.25
2022-10-01T07:10:34.842Z,978.26
2022-10-01T07:11:34.999Z,978.28
2022-10-01T07:12:34.560Z,978.25
2022-10-01T07:13:34.550Z,978.25
2022-10-01T07:14:34.566Z,978.26
2022-10-01T07:15:34.550Z,978.22
2022-10-01T07:16:34.575Z,978.28
2022-10-01T07:17:34.570Z,978.18
2022-10-01T07:18:34.537Z,978.19
2022-10-01T07:19:34.486Z,978.21
2022-10-01T07:20:34.537Z,978.18
2022-10-01T07:21:34.765Z,978.17
2022-10-01T07:22:34.462Z,978.19
2022-10-01T07:23:34.461Z,978.20
2022-10-01T07:24:34.458Z,978.24
2022-10-01T07:25:34.448Z,978.20
2022-10-01T07:26:34.489Z,978.19
2022-10-01T07:27:34.462Z,978.11
2022-10-01T07:28:34.423Z,978.14
2022-10-01T07:29:34.484Z,978.12
2022-10-01T07:30:34.404Z,978.07
2022-10-01T07:31:34.786Z,978.05
2022-10-01T07:32:34.389Z,978.07
2022-10-01T07:33:34.395Z,978.01
2022-10-01T07:34:34.377Z,978.01
2022-10-01T07:35:34.371Z,978.02
2022-10-01T07:36:34.352Z,978.03
2022-10-01T07:37:34.351Z,978.04
2022-10-01T07:38:34.365Z,978.03
2022-10-01T07:39:34.333Z,978.01
2022-10-01T07:40:34.342Z,978.02
2022-10-01T07:41:34.602Z,977.98
2022-10-01T07:42:34.313Z,977.96
2022-10-01T07:43:34.298Z,977.94
2022-10-01T07:44:34.293Z,977.89
2022-10-01T07:45:34.306Z,977.88
2022-10-01T07:46:34.946Z,977.84
2022-10-01T07:47:34.265Z,977.83
2022-10-01T07:48:34.274Z,977.76
2022-10-01T07:49:34.241Z,977.71
2022-10-01T07:50:34.237Z,977.73
2022-10-01T07:51:34.467Z,977.68
2022-10-01T07:52:34.292Z,977.69
2022-10-01T07:53:34.237Z,977.73
2022-10-01T07:54:34.200Z,977.71
2022-10-01T07:55:34.188Z,977.77
2022-10-01T07:56:34.178Z,977.78
2022-10-01T07:57:34.183Z,977.81
2022-10-01T07:58:34.181Z,977.80
2022-10-01T07:59:34.155Z,977.81
2022-10-01T08:00:34.171Z,977.82
2022-10-01T08:01:34.540Z,977.79
2022-10-01T08:02:34.241Z,977.77
2022-10-01T08:03:34.128Z,977.80
2022-10-01T08:04:34.119Z,977.80
2022-10-01T08:05:34.259Z,977.79
2022-10-01T08:06:34.152Z,977.79
2022-10-01T08:07:34.114Z,977.81
2022-10-01T08:08:34.081Z,977.80
2022-10-01T08:09:34.068Z,977.75
2022-10-01T08:10:34.087Z,977.76
2022-10-01T08:11:34.305Z,977.77
2022-10-01T08:12:34.048Z,977.79
2022-10-01T08:13:34.049Z,977.72
2022-10-01T08:14:34.027Z,977.74
2022-10-01T08:15:34.024Z,977.71
2022-10-01T08:16:34.074Z,977.68
2022-10-01T08:17:34.004Z,977.67
2022-10-01T08:18:41.510Z,977.66
2022-10-01T08:19:33.983Z,977.61
2022-10-01T08:20:33.980Z,977.65
2022-10-01T08:21:34.283Z,977.68
2022-10-01T08:22:37.525Z,977.70
2022-10-01T08:23:34.993Z,977.74
2022-10-01T08:24:33.939Z,977.72
2022-10-01T08:25:33.934Z,977.73
2022-10-01T08:26:33.914Z,977.79
2022-10-01T08:27:34.052Z,977.71
2022-10-01T08:28:33.909Z,977.69
2022-10-01T08:29:33.905Z,977.67
2022-10-01T08:30:33.883Z,977.66
2022-10-01T08:31:34.117Z,977.67
2022-10-01T08:32:33.886Z,977.69
2022-10-01T08:33:33.879Z,977.70
2022-10-01T08:34:33.847Z,977.70
2022-10-01T08:35:33.899Z,977.71
2022-10-01T08:36:33.837Z,977.70
2022-10-01T08:37:33.825Z,977.69
2022-10-01T08:38:33.833Z,977.69
2022-10-01T08:39:33.807Z,977.65
2022-10-01T08:40:33.797Z,977.73
2022-10-01T08:41:33.800Z,977.71
2022-10-01T08:42:33.785Z,977.69
2022-10-01T08:43:33.816Z,977.74
2022-10-01T08:44:33.774Z,977.79
2022-10-01T08:45:33.809Z,977.81
2022-10-01T08:46:34.372Z,977.81
2022-10-01T08:47:33.741Z,977.85
2022-10-01T08:48:33.744Z,977.92
2022-10-01T08:49:33.749Z,977.98
2022-10-01T08:50:33.714Z,977.98
2022-10-01T08:51:33.970Z,977.97
2022-10-01T08:52:33.700Z,978.00
2022-10-01T08:53:33.701Z,978.00
2022-10-01T08:54:33.680Z,978.06
2022-10-01T08:55:33.704Z,978.06
2022-10-01T08:56:33.728Z,978.06
2022-10-01T08:57:33.665Z,978.10
2022-10-01T08:58:33.845Z,978.03
2022-10-01T08:59:33.646Z,977.96
2022-10-01T09:00:33.654Z,977.97
2022-10-01T09:01:33.965Z,978.00
2022-10-01T09:02:33.668Z,977.98
2022-10-01T09:03:33.610Z,977.97
2022-10-01T09:04:33.645Z,978.04
2022-10-01T09:05:33.604Z,978.02
2022-10-01T09:06:33.582Z,977.97
2022-10-01T09:07:33.622Z,977.96
2022-10-01T09:08:33.580Z,977.94
2022-10-01T09:09:33.568Z,977.96
2022-10-01T09:10:33.545Z,977.96
2022-10-01T09:11:33.885Z,977.97
2022-10-01T09:12:33.527Z,977.99
2022-10-01T09:13:33.557Z,978.05
2022-10-01T09:14:33.511Z,978.03
2022-10-01T09:15:33.516Z,978.06
2022-10-01T09:16:33.580Z,978.04
2022-10-01T09:17:33.505Z,978.05
2022-10-01T09:18:33.472Z,978.09
2022-10-01T09:19:33.483Z,978.09
2022-10-01T09:20:33.453Z,978.10
2022-10-01T09:21:33.778Z,978.12
2022-10-01T09:22:33.451Z,978.08
2022-10-01T09:23:33.482Z,978.12
2022-10-01T09:24:33.444Z,978.15
2022-10-01T09:25:33.419Z,978.11
2022-10-01T09:26:33.419Z,978.11
2022-10-01T09:27:33.575Z,978.10
2022-10-01T09:28:33.590Z,978.14
2022-10-01T09:29:33.409Z,978.15
2022-10-01T09:30:33.382Z,978.11
2022-10-01T09:31:33.709Z,978.09
2022-10-01T09:32:33.421Z,978.08
2022-10-01T09:33:33.503Z,978.08
2022-10-01T09:34:33.356Z,978.08
2022-10-01T09:35:33.352Z,978.08
2022-10-01T09:36:33.349Z,978.08
2022-10-01T09:37:33.324Z,978.10
2022-10-01T09:38:33.424Z,978.07
2022-10-01T09:39:33.297Z,978.09
2022-10-01T09:40:33.286Z,978.09
2022-10-01T09:41:33.802Z,978.09
2022-10-01T09:42:33.272Z,978.07
2022-10-01T09:43:33.269Z,978.11
2022-10-01T09:44:33.264Z,978.10
2022-10-01T09:45:33.264Z,978.07
2022-10-01T09:46:33.260Z,978.11
2022-10-01T09:47:33.252Z,978.11
2022-10-01T09:48:33.270Z,978.13
2022-10-01T09:49:33.231Z,978.10
2022-10-01T09:50:33.216Z,978.09
2022-10-01T09:51:35.901Z,978.07
2022-10-01T09:52:34.216Z,978.09
2022-10-01T09:53:33.212Z,978.05
2022-10-01T09:54:33.179Z,978.09
2022-10-01T09:55:33.169Z,978.12
2022-10-01T09:56:33.159Z,978.14
2022-10-01T09:57:33.157Z,978.12
2022-10-01T09:58:33.194Z,978.12
2022-10-01T09:59:33.131Z,978.13
2022-10-01T10:00:33.131Z,978.15
2022-10-01T10:01:33.409Z,978.13
2022-10-01T10:02:33.263Z,978.14
2022-10-01T10:03:33.279Z,978.15
2022-10-01T10:04:33.175Z,978.13
2022-10-01T10:05:33.077Z,978.16
2022-10-01T10:06:33.502Z,978.18
2022-10-01T10:07:33.083Z,978.19
2022-10-01T10:08:33.090Z,978.17
2022-10-01T10:09:33.049Z,978.21
2022-10-01T10:10:33.075Z,978.24
2022-10-01T10:11:33.446Z,978.22
2022-10-01T10:12:33.062Z,978.24
2022-10-01T10:13:33.032Z,978.24
2022-10-01T10:14:33.033Z,978.21
2022-10-01T10:15:33.216Z,978.18
2022-10-01T10:16:33.361Z,978.22
2022-10-01T10:17:33.075Z,978.20
2022-10-01T10:18:32.978Z,978.21
2022-10-01T10:19:32.994Z,978.21
2022-10-01T10:20:32.970Z,978.21
2022-10-01T10:21:32.952Z,978.19
2022-10-01T10:22:32.966Z,978.21
2022-10-01T10:23:32.950Z,978.22
2022-10-01T10:24:32.936Z,978.25
2022-10-01T10:25:32.948Z,978.23
2022-10-01T10:26:33.244Z,978.24
2022-10-01T10:27:32.955Z,978.26
2022-10-01T10:28:37.593Z,978.24
2022-10-01T10:29:33.922Z,978.25
2022-10-01T10:30:32.883Z,978.25
2022-10-01T10:31:32.938Z,978.27
2022-10-01T10:32:32.880Z,978.31
2022-10-01T10:33:32.878Z,978.28
2022-10-01T10:34:32.839Z,978.30
2022-10-01T10:35:32.838Z,978.29
2022-10-01T10:36:33.197Z,978.25
2022-10-01T10:37:32.828Z,978.26
2022-10-01T10:38:32.831Z,978.26
2022-10-01T10:39:32.876Z,978.33
2022-10-01T10:40:32.807Z,978.29
2022-10-01T10:41:33.142Z,978.24
2022-10-01T10:42:32.818Z,978.25
2022-10-01T10:43:32.784Z,978.26
2022-10-01T10:44:32.765Z,978.26
2022-10-01T10:45:32.767Z,978.24
2022-10-01T10:46:32.817Z,978.28
2022-10-01T10:47:32.746Z,978.27
2022-10-01T10:48:32.752Z,978.30
2022-10-01T10:49:32.730Z,978.30
2022-10-01T10:50:32.713Z,978.36
2022-10-01T10:51:33.058Z,978.35
2022-10-01T10:52:32.777Z,978.36
2022-10-01T10:53:32.701Z,978.35
2022-10-01T10:54:32.717Z,978.31
2022-10-01T10:55:32.694Z,978.38
2022-10-01T10:56:33.008Z,978.34
2022-10-01T10:57:32.672Z,978.38
2022-10-01T10:58:32.673Z,978.37
2022-10-01T10:59:32.672Z,978.35
2022-10-01T11:00:32.655Z,978.37
2022-10-01T11:01:32.959Z,978.40
2022-10-01T11:02:32.677Z,978.36
2022-10-01T11:03:32.609Z,978.43
2022-10-01T11:04:32.599Z,978.28
2022-10-01T11:05:32.627Z,978.25
2022-10-01T11:06:32.928Z,978.29
2022-10-01T11:07:32.589Z,978.36
2022-10-01T11:08:32.563Z,978.31
2022-10-01T11:09:32.561Z,978.34
2022-10-01T11:10:32.567Z,978.26
2022-10-01T11:11:32.570Z,978.31
2022-10-01T11:12:32.549Z,978.29
2022-10-01T11:13:32.516Z,978.30
2022-10-01T11:14:32.519Z,978.35
2022-10-01T11:15:32.563Z,978.38
2022-10-01T11:16:32.875Z,978.38
2022-10-01T11:17:32.491Z,978.36
2022-10-01T11:18:32.479Z,978.37
2022-10-01T11:19:32.476Z,978.34
2022-10-01T11:20:32.470Z,978.32
2022-10-01T11:21:32.471Z,978.33
2022-10-01T11:22:32.444Z,978.32
2022-10-01T11:23:32.464Z,978.36
2022-10-01T11:24:32.458Z,978.35
2022-10-01T11:25:32.425Z,978.33
2022-10-01T11:26:32.713Z,978.32
2022-10-01T11:27:32.433Z,978.33
2022-10-01T11:28:32.493Z,978.33
2022-10-01T11:29:32.392Z,978.32
2022-10-01T11:30:32.385Z,978.33
2022-10-01T11:31:32.404Z,978.35
2022-10-01T11:32:32.367Z,978.37
2022-10-01T11:33:32.372Z,978.34
2022-10-01T11:34:32.347Z,978.36
2022-10-01T11:35:32.861Z,978.33
2022-10-01T11:36:32.637Z,978.42
2022-10-01T11:37:32.406Z,978.38
2022-10-01T11:38:32.547Z,978.38
2022-10-01T11:39:32.325Z,978.40
2022-10-01T11:40:32.414Z,978.40
2022-10-01T11:41:32.315Z,978.40
2022-10-01T11:42:32.292Z,978.40
2022-10-01T11:43:32.317Z,978.36
2022-10-01T11:44:32.296Z,978.38
2022-10-01T11:45:40.893Z,978.41
2022-10-01T11:46:34.130Z,978.44
2022-10-01T11:47:32.554Z,978.43
2022-10-01T11:48:32.242Z,978.44
2022-10-01T11:49:32.241Z,978.43
2022-10-01T11:50:36.143Z,978.46
2022-10-01T11:51:33.209Z,978.41
2022-10-01T11:52:32.203Z,978.42
2022-10-01T11:53:32.200Z,978.43
2022-10-01T11:54:32.263Z,978.40
2022-10-01T11:55:32.202Z,978.36
2022-10-01T11:56:32.325Z,978.41
2022-10-01T11:57:32.164Z,978.42
2022-10-01T11:58:32.146Z,978.42
2022-10-01T11:59:32.143Z,978.41
2022-10-01T12:00:32.132Z,978.39
2022-10-01T12:01:32.225Z,978.38
2022-10-01T12:02:32.112Z,978.41
2022-10-01T12:03:32.117Z,978.43
2022-10-01T12:04:32.105Z,978.43
2022-10-01T12:05:32.199Z,978.45
2022-10-01T12:06:34.234Z,978.45
2022-10-01T12:07:32.087Z,978.47
2022-10-01T12:08:32.079Z,978.44
2022-10-01T12:09:32.063Z,978.46
2022-10-01T12:10:32.063Z,978.46
2022-10-01T12:11:32.078Z,978.48
2022-10-01T12:12:32.041Z,978.49
2022-10-01T12:13:32.022Z,978.44
2022-10-01T12:14:32.022Z,978.43
2022-10-01T12:15:32.051Z,978.45
2022-10-01T12:16:32.110Z,978.45
2022-10-01T12:17:32.010Z,978.47
2022-10-01T12:18:31.987Z,978.48
2022-10-01T12:19:32.063Z,978.49
2022-10-01T12:20:31.968Z,978.47
2022-10-01T12:21:32.007Z,978.47
2022-10-01T12:22:31.971Z,978.49
2022-10-01T12:23:31.944Z,978.46
2022-10-01T12:24:31.959Z,978.47
2022-10-01T12:25:31.960Z,978.50
2022-10-01T12:26:32.243Z,978.51
2022-10-01T12:27:31.932Z,978.51
2022-10-01T12:28:32.037Z,978.47